Time;durP1;ratioP1;P1;durP2;ratioP2;P2;SDS_P1;SDS_P2;PMS_P1;PMS_P2;Temp;Humidity;BMP_temperature;BMP_pressure;BME280_temperature;BME280_humidity;BME280_pressure;Samples;Min_cycle;Max_cycle;Signal;HPM_P1;HPM_P2
2024/03/19 00:01:26;;;;;;;14.00;6.80;;;;;;;2.25;77.36;101191.18;107508;1254;99791;-63
2024/03/19 00:03:54;;;;;;;14.50;7.70;;;;;;;2.16;77.81;101191.39;107565;1253;113252;-63
2024/03/19 00:06:22;;;;;;;15.40;8.10;;;;;;;2.12;77.96;101190.35;107553;1254;108576;-63
2024/03/19 00:08:51;;;;;;;15.00;8.10;;;;;;;2.06;78.03;101191.34;107562;1253;107536;-63
2024/03/19 00:11:19;;;;;;;13.70;8.40;;;;;;;2.05;78.08;101184.30;107576;1254;99205;-64
2024/03/19 00:13:51;;;;;;;11.90;7.20;;;;;;;2.13;78.38;101182.67;107594;1253;99733;-64
2024/03/19 00:16:19;;;;;;;10.90;8.00;;;;;;;2.14;78.41;101182.45;107572;1254;114139;-62
2024/03/19 00:18:47;;;;;;;12.10;8.00;;;;;;;2.05;78.60;101180.38;107609;1254;107892;-62
2024/03/19 00:21:15;;;;;;;13.50;7.70;;;;;;;2.01;78.50;101180.58;107545;1252;107464;-64
2024/03/19 00:23:43;;;;;;;13.70;8.10;;;;;;;1.99;78.50;101183.48;107565;1253;99189;-63
2024/03/19 00:26:11;;;;;;;11.30;8.20;;;;;;;2.00;78.66;101179.77;107526;1253;99188;-63
2024/03/19 00:28:40;;;;;;;11.80;7.80;;;;;;;2.00;78.83;101174.77;107964;1254;113698;-63
2024/03/19 00:31:10;;;;;;;12.90;8.40;;;;;;;1.98;78.99;101174.53;107552;1254;108505;-63
2024/03/19 00:33:38;;;;;;;10.80;7.20;;;;;;;1.96;78.93;101176.91;107598;1253;108710;-62
2024/03/19 00:36:08;;;;;;;10.10;7.20;;;;;;;1.91;79.32;101175.22;107511;1256;99163;-62
2024/03/19 00:38:36;;;;;;;9.80;6.90;;;;;;;1.84;79.32;101169.35;107652;1253;99726;-63
2024/03/19 00:41:04;;;;;;;10.00;7.20;;;;;;;1.87;79.61;101168.50;107626;1254;111442;-64
2024/03/19 00:43:33;;;;;;;12.20;7.70;;;;;;;1.86;79.63;101164.98;107645;1254;107333;-63
2024/03/19 00:46:01;;;;;;;7.80;6.10;;;;;;;1.89;79.64;101167.52;107542;1252;108468;-63
2024/03/19 00:48:29;;;;;;;11.00;7.20;;;;;;;1.87;79.71;101169.70;107578;1254;99367;-65
2024/03/19 00:50:57;;;;;;;9.20;6.90;;;;;;;1.84;79.59;101170.73;107493;1252;99166;-63
2024/03/19 00:53:26;;;;;;;13.50;7.30;;;;;;;1.82;79.76;101168.71;107594;1255;113733;-62
2024/03/19 00:55:54;;;;;;;9.90;7.20;;;;;;;1.80;79.78;101168.08;107568;1255;107733;-63
2024/03/19 00:58:22;;;;;;;11.90;8.30;;;;;;;1.82;79.91;101166.59;107620;1251;108252;-64
2024/03/19 01:00:52;;;;;;;14.00;6.30;;;;;;;1.84;79.59;101170.90;107606;1251;99179;-63
2024/03/19 01:03:20;;;;;;;11.40;7.30;;;;;;;1.84;79.81;101167.71;107617;1254;99194;-62
2024/03/19 01:05:49;;;;;;;10.90;6.90;;;;;;;1.84;79.62;101160.48;107562;1254;113469;-62
2024/03/19 01:08:18;;;;;;;9.80;7.20;;;;;;;1.91;79.93;101155.03;107588;1254;108357;-64
2024/03/19 01:10:47;;;;;;;11.40;7.30;;;;;;;1.99;79.84;101157.67;107594;1251;107778;-63
2024/03/19 01:13:15;;;;;;;9.90;7.10;;;;;;;2.04;80.02;101158.33;107552;1251;99167;-62
2024/03/19 01:15:43;;;;;;;11.00;6.70;;;;;;;2.05;79.69;101161.14;107486;1254;99272;-64
2024/03/19 01:18:11;;;;;;;11.20;7.50;;;;;;;1.98;79.51;101155.27;107589;1251;113001;-63
2024/03/19 01:20:40;;;;;;;9.90;7.40;;;;;;;1.93;79.07;101155.88;107621;1251;107166;-63
2024/03/19 01:23:08;;;;;;;12.00;7.30;;;;;;;1.95;79.39;101157.89;107575;1251;108113;-63
2024/03/19 01:25:36;;;;;;;12.60;8.10;;;;;;;1.99;79.36;101155.20;107539;1254;99258;-64
2024/03/19 01:28:05;;;;;;;13.60;7.60;;;;;;;2.04;79.39;101152.70;107631;1251;99723;-64
2024/03/19 01:30:34;;;;;;;10.90;7.10;;;;;;;2.09;79.37;101147.31;107622;1251;112647;-62
2024/03/19 01:33:03;;;;;;;10.00;6.90;;;;;;;2.13;79.30;101149.60;107618;1251;107878;-63
2024/03/19 01:35:31;;;;;;;9.70;6.20;;;;;;;2.17;79.31;101143.39;107597;1251;108819;-66
2024/03/19 01:37:59;;;;;;;9.90;6.80;;;;;;;2.20;79.24;101144.48;107559;1255;99317;-63
2024/03/19 01:40:27;;;;;;;10.50;6.60;;;;;;;2.23;79.01;101144.89;107640;1253;99087;-62
2024/03/19 01:42:56;;;;;;;10.80;6.90;;;;;;;2.20;78.79;101143.79;107629;1254;112756;-64
2024/03/19 01:45:24;;;;;;;8.10;6.40;;;;;;;2.20;78.72;101141.46;107584;1250;106867;-65
2024/03/19 01:47:52;;;;;;;9.60;6.30;;;;;;;2.21;78.76;101139.16;107582;1254;108816;-63
2024/03/19 01:50:21;;;;;;;9.60;6.20;;;;;;;2.22;78.89;101133.43;107581;1254;99180;-63
2024/03/19 01:52:54;;;;;;;9.80;6.70;;;;;;;2.16;78.53;101134.41;107602;1254;99711;-64
2024/03/19 01:55:23;;;;;;;9.00;6.40;;;;;;;2.08;78.40;101138.88;107517;1254;113823;-64
2024/03/19 01:57:52;;;;;;;7.40;5.60;;;;;;;2.10;78.45;101136.13;107564;1256;106883;-63
2024/03/19 02:00:20;;;;;;;10.50;6.10;;;;;;;2.10;78.39;101134.48;107599;1256;108328;-62
2024/03/19 02:02:49;;;;;;;9.50;5.70;;;;;;;2.11;78.61;101131.81;107537;1254;99182;-64
2024/03/19 02:05:17;;;;;;;11.10;6.60;;;;;;;2.09;78.35;101131.75;107592;1253;99032;-63
2024/03/19 02:07:45;;;;;;;7.90;6.10;;;;;;;2.06;78.41;101130.11;107517;1254;113537;-62
2024/03/19 02:10:14;;;;;;;8.70;5.50;;;;;;;2.03;78.32;101127.94;107615;1254;110267;-63
2024/03/19 02:12:42;;;;;;;9.10;6.30;;;;;;;2.06;78.23;101127.66;107531;1254;108288;-63
2024/03/19 02:15:10;;;;;;;9.30;6.90;;;;;;;2.09;78.62;101124.46;107572;1253;99201;-63
2024/03/19 02:17:38;;;;;;;8.50;5.90;;;;;;;2.13;78.87;101128.55;107648;1253;99105;-62
2024/03/19 02:20:12;;;;;;;8.70;6.70;;;;;;;2.10;78.61;101132.73;107505;1253;113265;-63
2024/03/19 02:22:46;;;;;;;10.40;6.80;;;;;;;2.11;78.50;101135.03;107585;1254;107557;-61
2024/03/19 02:25:14;;;;;;;10.40;6.90;;;;;;;2.12;78.32;101134.58;107644;1254;107207;-63
2024/03/19 02:27:46;;;;;;;10.20;6.90;;;;;;;2.13;78.21;101142.70;107492;1254;99291;-62
2024/03/19 02:30:14;;;;;;;9.90;6.60;;;;;;;2.05;77.97;101146.41;107541;1254;99826;-62
2024/03/19 02:32:43;;;;;;;9.50;6.60;;;;;;;1.98;77.87;101146.22;107585;1254;113445;-64
2024/03/19 02:35:11;;;;;;;10.90;7.60;;;;;;;2.00;78.18;101145.62;107566;1254;106986;-65
2024/03/19 02:37:39;;;;;;;8.70;6.80;;;;;;;2.05;78.18;101140.23;107573;1254;108222;-64
2024/03/19 02:40:08;;;;;;;10.90;8.00;;;;;;;2.10;78.29;101145.65;107489;1256;99254;-64
2024/03/19 02:42:36;;;;;;;10.80;7.60;;;;;;;2.14;78.17;101144.58;107553;1252;99065;-62
2024/03/19 02:45:04;;;;;;;10.90;7.30;;;;;;;2.11;77.92;101141.92;107525;1252;112351;-64
2024/03/19 02:47:32;;;;;;;11.10;8.00;;;;;;;2.13;77.78;101142.86;107525;1253;107649;-63
2024/03/19 02:50:00;;;;;;;9.90;7.60;;;;;;;2.16;77.97;101137.75;107527;1254;108099;-63
2024/03/19 02:52:29;;;;;;;13.60;8.00;;;;;;;2.17;77.78;101138.63;107568;1252;99176;-62
2024/03/19 02:54:57;;;;;;;11.80;8.20;;;;;;;2.18;77.73;101141.56;107520;1256;99207;-63
2024/03/19 02:57:25;;;;;;;12.30;8.60;;;;;;;2.20;77.83;101143.08;107541;1254;113346;-63
2024/03/19 02:59:54;;;;;;;10.30;7.80;;;;;;;2.23;77.84;101148.05;107552;1254;108584;-63
2024/03/19 03:02:22;;;;;;;10.00;8.00;;;;;;;2.27;77.82;101149.14;107230;1257;108302;-64
2024/03/19 03:04:50;;;;;;;11.40;8.10;;;;;;;2.27;77.55;101144.16;107425;1254;99118;-63
2024/03/19 03:07:18;;;;;;;18.40;8.60;;;;;;;2.27;77.64;101144.15;107584;1254;99722;-63
2024/03/19 03:09:46;;;;;;;12.50;8.30;;;;;;;2.30;77.77;101148.25;107627;1254;112752;-62
2024/03/19 03:12:14;;;;;;;13.40;8.40;;;;;;;2.31;77.56;101149.98;107540;1254;107599;-64
2024/03/19 03:14:45;;;;;;;15.00;8.80;;;;;;;2.30;77.59;101156.23;107553;1254;108662;-66
2024/03/19 03:17:13;;;;;;;11.90;8.00;;;;;;;2.24;76.99;101157.24;107576;1254;99198;-65
2024/03/19 03:19:42;;;;;;;16.90;7.80;;;;;;;2.13;76.66;101160.37;107606;1253;99271;-63
2024/03/19 03:22:10;;;;;;;12.50;8.60;;;;;;;2.09;76.88;101162.55;107574;1254;113533;-63
2024/03/19 03:24:39;;;;;;;14.00;8.60;;;;;;;2.03;77.13;101163.32;107613;1254;107681;-64
2024/03/19 03:27:07;;;;;;;12.20;8.90;;;;;;;2.03;77.07;101161.19;107515;1256;109011;-63
2024/03/19 03:29:36;;;;;;;12.60;9.10;;;;;;;2.00;76.97;101166.30;107544;1253;99205;-65
2024/03/19 03:32:04;;;;;;;12.70;8.50;;;;;;;1.94;77.12;101164.98;107519;1256;99182;-65
2024/03/19 03:34:35;;;;;;;15.10;8.80;;;;;;;1.86;76.86;101165.70;107572;1254;113254;-63
2024/03/19 03:37:06;;;;;;;12.70;8.60;;;;;;;1.83;77.43;101167.61;107559;1254;108777;-63
2024/03/19 03:39:43;;;;;;;11.00;7.70;;;;;;;1.86;77.54;101164.43;107560;1254;107760;-63
2024/03/19 03:42:12;;;;;;;11.90;8.10;;;;;;;1.91;77.45;101158.39;107533;1253;99256;-63
2024/03/19 03:44:41;;;;;;;12.80;9.10;;;;;;;1.92;77.53;101159.27;107634;1253;99713;-65
2024/03/19 03:47:09;;;;;;;12.00;8.30;;;;;;;1.92;77.46;101156.05;107593;1254;113162;-62
2024/03/19 03:49:37;;;;;;;13.60;8.00;;;;;;;1.87;77.26;101163.55;107543;1251;108345;-63
2024/03/19 03:52:07;;;;;;;12.10;9.00;;;;;;;1.81;77.19;101169.64;107594;1255;108172;-64
2024/03/19 03:54:35;;;;;;;13.90;9.40;;;;;;;1.77;77.27;101173.90;107650;1251;99182;-62
2024/03/19 03:57:04;;;;;;;12.10;8.20;;;;;;;1.68;77.47;101170.04;107625;1251;99791;-62
2024/03/19 03:59:32;;;;;;;13.60;9.60;;;;;;;1.63;77.72;101169.38;107655;1251;113879;-63
2024/03/19 04:02:00;;;;;;;12.10;8.50;;;;;;;1.63;77.58;101163.40;107524;1254;107778;-63
2024/03/19 04:04:28;;;;;;;13.50;8.90;;;;;;;1.63;77.62;101163.70;107592;1251;107474;-62
2024/03/19 04:06:57;;;;;;;13.60;8.20;;;;;;;1.70;78.05;101171.39;107551;1253;99070;-64
2024/03/19 04:09:25;;;;;;;13.80;9.00;;;;;;;1.67;77.77;101175.40;107653;1251;99720;-62
2024/03/19 04:11:53;;;;;;;16.40;8.80;;;;;;;1.57;77.81;101178.84;107594;1254;112012;-64
2024/03/19 04:14:21;;;;;;;14.70;9.70;;;;;;;1.50;77.90;101176.85;107603;1256;109826;-64
2024/03/19 04:16:49;;;;;;;11.50;8.90;;;;;;;1.48;77.83;101176.04;107586;1255;109446;-63
2024/03/19 04:19:17;;;;;;;13.30;8.60;;;;;;;1.51;77.95;101177.02;107577;1253;99024;-63
2024/03/19 04:21:46;;;;;;;12.20;8.40;;;;;;;1.54;78.07;101175.45;107565;1251;99070;-64
2024/03/19 04:24:14;;;;;;;10.40;8.00;;;;;;;1.57;77.84;101176.73;107620;1253;112038;-64
2024/03/19 04:26:42;;;;;;;11.20;8.80;;;;;;;1.60;77.99;101176.27;107583;1254;107593;-62
2024/03/19 04:29:15;;;;;;;11.10;8.60;;;;;;;1.64;78.06;101180.66;107560;1253;106780;-64
2024/03/19 04:31:44;;;;;;;13.60;9.20;;;;;;;1.65;77.66;101180.61;107646;1254;99160;-67
2024/03/19 04:34:12;;;;;;;14.50;9.40;;;;;;;1.62;77.49;101183.39;107550;1254;99172;-62
2024/03/19 04:36:40;;;;;;;12.60;9.30;;;;;;;1.60;77.12;101192.16;107600;1251;112121;-63
2024/03/19 04:39:14;;;;;;;12.20;8.80;;;;;;;1.51;77.23;101189.89;107598;1254;107524;-63
2024/03/19 04:41:42;;;;;;;15.00;9.80;;;;;;;1.51;77.30;101190.94;107624;1251;107494;-62
2024/03/19 04:44:10;;;;;;;12.70;9.30;;;;;;;1.51;77.36;101194.84;107581;1254;99164;-63
2024/03/19 04:46:38;;;;;;;15.50;11.20;;;;;;;1.47;77.22;101196.59;107575;1251;99157;-64
2024/03/19 04:49:06;;;;;;;17.90;12.50;;;;;;;1.45;77.42;101197.56;107600;1254;112815;-64
2024/03/19 04:51:34;;;;;;;14.50;10.40;;;;;;;1.46;77.48;101197.02;107556;1251;107974;-65
2024/03/19 04:54:03;;;;;;;16.10;11.20;;;;;;;1.52;77.65;101198.70;107551;1251;108585;-64
2024/03/19 04:56:31;;;;;;;22.20;15.20;;;;;;;1.56;77.42;101199.40;107589;1256;99083;-63
2024/03/19 04:58:59;;;;;;;18.30;11.40;;;;;;;1.57;77.17;101198.30;107547;1256;99729;-63
2024/03/19 05:01:28;;;;;;;24.60;15.30;;;;;;;1.63;77.36;101204.92;107564;1251;113233;-64
2024/03/19 05:03:56;;;;;;;16.90;11.20;;;;;;;1.68;77.13;101208.58;107585;1251;107542;-63
2024/03/19 05:06:24;;;;;;;14.70;10.30;;;;;;;1.62;76.57;101208.52;107651;1251;108120;-63
2024/03/19 05:08:52;;;;;;;17.70;11.80;;;;;;;1.57;76.62;101208.56;107573;1251;99256;-63
2024/03/19 05:11:21;;;;;;;16.40;11.10;;;;;;;1.63;77.05;101209.51;107607;1252;99086;-66
2024/03/19 05:13:49;;;;;;;17.70;12.30;;;;;;;1.69;76.38;101217.55;107572;1251;113305;-65
2024/03/19 05:16:17;;;;;;;16.50;11.60;;;;;;;1.64;76.08;101215.33;107617;1251;108359;-65
2024/03/19 05:18:45;;;;;;;17.30;11.10;;;;;;;1.62;76.22;101213.61;107570;1253;108149;-65
2024/03/19 05:21:13;;;;;;;15.00;10.20;;;;;;;1.61;76.00;101216.15;107528;1251;99172;-63
2024/03/19 05:23:49;;;;;;;15.60;10.20;;;;;;;1.60;75.96;101214.78;107593;1253;99083;-65
2024/03/19 05:26:17;;;;;;;15.70;9.70;;;;;;;1.60;76.16;101219.89;107539;1251;113176;-64
2024/03/19 05:28:45;;;;;;;14.20;10.30;;;;;;;1.63;75.75;101221.90;107573;1251;108385;-63
2024/03/19 05:31:25;;;;;;;15.40;10.70;;;;;;;1.63;76.03;101218.88;107584;1251;107469;-64
2024/03/19 05:33:55;;;;;;;15.70;10.50;;;;;;;1.72;76.26;101222.02;107595;1251;99181;-65
2024/03/19 05:36:24;;;;;;;14.40;9.50;;;;;;;1.85;76.42;101222.51;107593;1254;99797;-65
2024/03/19 05:38:53;;;;;;;15.10;10.90;;;;;;;1.98;76.24;101222.83;107605;1254;112740;-64
2024/03/19 05:41:21;;;;;;;15.90;10.40;;;;;;;2.05;75.61;101221.65;107575;1254;107280;-64
2024/03/19 05:43:49;;;;;;;14.60;10.30;;;;;;;2.03;74.83;101224.88;107586;1254;108454;-65
2024/03/19 05:46:22;;;;;;;17.40;11.00;;;;;;;2.10;75.37;101224.05;107520;1251;99195;-64
2024/03/19 05:48:50;;;;;;;14.40;9.80;;;;;;;2.21;75.50;101227.62;107548;1254;100993;-64
2024/03/19 05:51:18;;;;;;;15.80;10.20;;;;;;;2.19;73.97;101225.58;107565;1254;113419;-64
2024/03/19 05:53:46;;;;;;;19.10;11.30;;;;;;;2.18;74.06;101227.05;107610;1254;106724;-64
2024/03/19 05:56:14;;;;;;;15.00;10.20;;;;;;;2.27;74.53;101225.60;107543;1255;107599;-64
2024/03/19 05:58:42;;;;;;;15.30;11.30;;;;;;;2.37;74.19;101232.38;107524;1254;99172;-63
2024/03/19 06:01:11;;;;;;;16.30;9.50;;;;;;;2.38;73.49;101232.65;107537;1254;99111;-63
2024/03/19 06:03:39;;;;;;;11.40;9.50;;;;;;;2.38;73.36;101235.02;107550;1254;113022;-64
2024/03/19 06:06:10;;;;;;;16.40;10.30;;;;;;;2.29;72.94;101233.63;107581;1254;108153;-63
2024/03/19 06:08:39;;;;;;;15.30;9.80;;;;;;;2.31;73.50;101234.26;107540;1256;108407;-65
2024/03/19 06:11:07;;;;;;;14.50;9.50;;;;;;;2.37;73.04;101241.59;107557;1254;99189;-63
2024/03/19 06:13:36;;;;;;;20.20;10.80;;;;;;;2.33;72.51;101239.80;107542;1253;99061;-64
2024/03/19 06:16:07;;;;;;;17.70;10.80;;;;;;;2.34;72.93;101241.70;107542;1254;113341;-64
2024/03/19 06:18:37;;;;;;;13.00;9.10;;;;;;;2.33;72.16;101247.40;107591;1254;108967;-64
2024/03/19 06:21:05;;;;;;;13.80;10.00;;;;;;;2.29;72.04;101244.44;107496;1253;108476;-63
2024/03/19 06:23:33;;;;;;;16.60;9.20;;;;;;;2.27;72.17;101249.12;107392;1254;99185;-63
2024/03/19 06:26:02;;;;;;;16.40;9.90;;;;;;;2.31;72.47;101245.56;107571;1256;99294;-64
2024/03/19 06:28:30;;;;;;;19.70;10.30;;;;;;;2.40;72.41;101245.52;107532;1254;114271;-63
2024/03/19 06:30:58;;;;;;;14.00;10.70;;;;;;;2.55;72.65;101247.27;107616;1254;106937;-63
2024/03/19 06:33:27;;;;;;;21.00;12.60;;;;;;;2.73;72.45;101245.72;107564;1254;108866;-65
2024/03/19 06:35:55;;;;;;;20.50;12.10;;;;;;;2.81;70.94;101241.62;107614;1254;99169;-64
2024/03/19 06:38:23;;;;;;;22.70;11.30;;;;;;;2.87;71.13;101237.98;107583;1254;99877;-62
2024/03/19 06:40:52;;;;;;;13.90;10.00;;;;;;;3.00;71.03;101240.02;107539;1254;112759;-62
2024/03/19 06:43:20;;;;;;;21.80;11.10;;;;;;;3.18;71.25;101239.27;107508;1254;107586;-63
2024/03/19 06:45:48;;;;;;;12.00;8.80;;;;;;;3.35;71.06;101237.22;107617;1256;108244;-66
2024/03/19 06:48:16;;;;;;;16.20;10.60;;;;;;;3.40;69.52;101240.16;107508;1254;99170;-64
2024/03/19 06:50:45;;;;;;;24.70;10.40;;;;;;;3.41;69.33;101233.87;107563;1254;99262;-64
2024/03/19 06:53:15;;;;;;;13.00;9.30;;;;;;;3.50;69.34;101231.86;107548;1254;112109;-63
2024/03/19 06:55:43;;;;;;;15.40;10.40;;;;;;;3.48;68.16;101237.59;107520;1254;108670;-63
2024/03/19 06:58:12;;;;;;;14.40;9.70;;;;;;;3.50;68.80;101234.13;107526;1256;107967;-64
2024/03/19 07:00:40;;;;;;;15.80;10.40;;;;;;;3.50;67.54;101236.80;107571;1256;99318;-63
2024/03/19 07:03:09;;;;;;;16.10;9.80;;;;;;;3.46;67.10;101239.45;107537;1254;99162;-64
2024/03/19 07:05:38;;;;;;;14.40;10.10;;;;;;;3.36;65.71;101239.65;107575;1254;111859;-62
2024/03/19 07:08:06;;;;;;;12.70;8.50;;;;;;;3.31;66.31;101242.73;107581;1254;107474;-63
2024/03/19 07:10:34;;;;;;;14.50;8.80;;;;;;;3.20;65.36;101243.95;107653;1256;107566;-62
2024/03/19 07:13:03;;;;;;;17.10;10.40;;;;;;;3.09;65.84;101238.49;107529;1254;99163;-63
2024/03/19 07:15:31;;;;;;;14.20;9.60;;;;;;;3.24;66.36;101240.38;107560;1257;99782;-62
2024/03/19 07:18:01;;;;;;;20.70;10.60;;;;;;;3.44;66.63;101239.06;107565;1254;113167;-63
2024/03/19 07:20:31;;;;;;;17.70;8.70;;;;;;;3.60;66.76;101236.27;107530;1256;108407;-63
2024/03/19 07:23:00;;;;;;;14.90;9.00;;;;;;;3.73;66.98;101237.89;107513;1254;108332;-63
2024/03/19 07:25:28;;;;;;;11.70;8.70;;;;;;;3.85;66.90;101235.88;107525;1254;99263;-63
2024/03/19 07:27:57;;;;;;;17.50;8.50;;;;;;;3.92;66.00;101232.84;107454;1254;99298;-64
2024/03/19 07:30:26;;;;;;;15.00;9.30;;;;;;;4.04;66.31;101222.80;107544;1254;112037;-66
2024/03/19 07:32:55;;;;;;;10.90;7.30;;;;;;;4.14;64.99;101224.77;107551;1254;107668;-65
2024/03/19 07:35:28;;;;;;;16.50;11.80;;;;;;;4.02;62.36;101223.80;107521;1254;107108;-63
2024/03/19 07:37:56;;;;;;;15.00;10.30;;;;;;;4.13;64.21;101218.23;107519;1254;99278;-63
2024/03/19 07:40:25;;;;;;;15.30;9.20;;;;;;;4.31;64.22;101221.49;107560;1254;99188;-63
2024/03/19 07:42:54;;;;;;;13.10;8.20;;;;;;;4.34;62.16;101224.70;107577;1252;113128;-62
2024/03/19 07:45:22;;;;;;;17.00;9.60;;;;;;;4.42;62.20;101222.02;107523;1252;108093;-64
2024/03/19 07:47:51;;;;;;;14.90;9.50;;;;;;;4.52;62.58;101217.85;107515;1256;107980;-63
2024/03/19 07:50:23;;;;;;;12.30;8.90;;;;;;;4.64;63.13;101215.77;107680;1251;99191;-62
2024/03/19 07:52:51;;;;;;;13.30;8.00;;;;;;;4.85;63.27;101212.08;107576;1255;99762;-63
2024/03/19 07:55:21;;;;;;;14.40;8.60;;;;;;;5.06;62.36;101208.20;107652;1251;113437;-64
2024/03/19 07:57:50;;;;;;;10.50;7.50;;;;;;;5.06;60.53;101207.34;106648;1254;1261867;-63
2024/03/19 08:00:19;;;;;;;10.90;7.50;;;;;;;4.95;60.33;101207.24;107577;1256;108438;-62
2024/03/19 08:02:47;;;;;;;12.70;8.50;;;;;;;4.81;59.26;101210.58;107613;1257;99278;-64
2024/03/19 08:05:15;;;;;;;10.70;7.70;;;;;;;4.56;58.34;101209.66;107629;1256;99807;-63
2024/03/19 08:07:43;;;;;;;16.30;8.90;;;;;;;4.51;59.84;101209.92;107590;1251;113190;-65
2024/03/19 08:10:12;;;;;;;10.80;7.30;;;;;;;4.71;61.01;101207.56;107580;1251;108577;-64
2024/03/19 08:12:40;;;;;;;11.30;7.40;;;;;;;4.89;59.29;101213.86;107618;1256;107150;-63
2024/03/19 08:15:10;;;;;;;13.80;7.50;;;;;;;4.89;58.41;101206.56;107605;1251;99411;-66
2024/03/19 08:17:38;;;;;;;11.10;7.20;;;;;;;5.05;58.54;101201.53;107631;1251;99698;-63
2024/03/19 08:20:12;;;;;;;8.00;6.10;;;;;;;5.27;58.33;101202.90;107654;1251;112979;-64
2024/03/19 08:22:41;;;;;;;15.20;7.60;;;;;;;5.52;58.39;101197.88;107594;1254;108415;-65
2024/03/19 08:25:11;;;;;;;10.30;6.40;;;;;;;5.65;57.95;101200.64;107610;1254;108003;-63
2024/03/19 08:27:39;;;;;;;9.70;5.90;;;;;;;5.68;56.31;101202.41;107649;1251;99860;-64
2024/03/19 08:30:08;;;;;;;36.70;7.60;;;;;;;5.72;56.16;101197.53;107613;1256;100899;-63
2024/03/19 08:32:37;;;;;;;15.00;7.70;;;;;;;5.82;56.95;101197.14;107635;1252;112326;-63
2024/03/19 08:35:10;;;;;;;11.60;6.60;;;;;;;5.98;56.78;101198.28;107651;1251;108413;-64
2024/03/19 08:37:39;;;;;;;10.40;6.80;;;;;;;6.14;56.54;101197.68;107591;1251;107364;-64
2024/03/19 08:40:09;;;;;;;20.80;7.50;;;;;;;6.19;54.86;101198.95;107650;1251;99172;-65
2024/03/19 08:42:37;;;;;;;15.30;7.60;;;;;;;6.15;54.45;101197.21;107643;1255;99262;-64
2024/03/19 08:45:10;;;;;;;10.80;7.10;;;;;;;6.35;55.33;101190.32;107639;1254;112715;-65
2024/03/19 08:47:39;;;;;;;9.90;6.40;;;;;;;6.49;54.83;101183.67;107645;1254;108313;-64
2024/03/19 08:50:08;;;;;;;15.40;7.50;;;;;;;6.66;54.77;101185.45;107549;1254;108361;-62
2024/03/19 08:52:36;;;;;;;8.50;6.00;;;;;;;6.71;52.20;101187.80;107539;1256;99206;-64
2024/03/19 08:55:06;;;;;;;16.90;5.30;;;;;;;6.69;51.32;101182.42;107624;1254;99210;-63
2024/03/19 08:57:34;;;;;;;7.80;5.10;;;;;;;6.87;51.35;101176.96;107586;1255;112708;-64
2024/03/19 09:00:10;;;;;;;12.30;5.50;;;;;;;6.97;52.37;101175.73;107596;1254;109100;-63
2024/03/19 09:02:39;;;;;;;6.30;4.90;;;;;;;7.09;52.49;101177.09;107552;1256;106711;-63
2024/03/19 09:05:07;;;;;;;17.60;6.50;;;;;;;7.14;50.83;101181.04;107563;1257;99514;-63
2024/03/19 09:07:39;;;;;;;10.10;5.60;;;;;;;7.32;51.31;101171.94;107643;1254;99710;-63
2024/03/19 09:10:09;;;;;;;7.20;4.70;;;;;;;7.39;50.33;101171.34;107563;1255;113775;-63
2024/03/19 09:12:37;;;;;;;10.30;5.50;;;;;;;7.42;50.21;101170.24;107547;1254;107488;-63
2024/03/19 09:15:08;;;;;;;17.40;5.80;;;;;;;7.66;50.50;101166.23;107542;1254;108746;-63
2024/03/19 09:17:36;;;;;;;9.70;5.20;;;;;;;8.15;49.70;101165.64;107659;1255;99140;-62
2024/03/19 09:20:06;;;;;;;6.10;3.80;;;;;;;8.28;48.73;101168.24;107598;1253;99721;-63
2024/03/19 09:22:34;;;;;;;8.10;5.00;;;;;;;8.22;46.11;101169.61;107563;1254;112679;-64
2024/03/19 09:25:03;;;;;;;14.60;4.60;;;;;;;7.89;44.76;101166.61;107605;1255;108248;-64
2024/03/19 09:27:39;;;;;;;5.90;4.20;;;;;;;7.92;47.07;101165.16;107618;1254;109508;-63
2024/03/19 09:30:08;;;;;;;5.50;4.10;;;;;;;8.46;47.42;101161.99;107520;1255;99188;-63
2024/03/19 09:32:36;;;;;;;6.90;4.60;;;;;;;8.53;47.22;101164.20;107615;1254;99272;-63
2024/03/19 09:35:06;;;;;;;4.80;3.70;;;;;;;8.46;44.90;101167.02;107571;1256;112143;-64
2024/03/19 09:37:34;;;;;;;8.70;3.80;;;;;;;8.19;43.05;101163.73;107549;1254;107425;-63
2024/03/19 09:40:06;;;;;;;8.50;3.60;;;;;;;8.11;44.46;101154.14;107586;1256;108016;-64
2024/03/19 09:42:34;;;;;;;7.90;4.00;;;;;;;8.17;44.94;101155.55;107610;1252;99178;-66
2024/03/19 09:45:05;;;;;;;4.70;4.20;;;;;;;8.63;45.26;101153.27;107548;1255;99156;-65
2024/03/19 09:47:33;;;;;;;11.90;4.50;;;;;;;9.79;43.85;101147.30;107613;1253;112609;-63
2024/03/19 09:50:04;;;;;;;3.90;3.10;;;;;;;11.12;40.16;101137.75;107633;1254;106839;-64
2024/03/19 09:52:33;;;;;;;7.20;2.70;;;;;;;11.79;38.73;101134.34;107559;1256;107632;-63
2024/03/19 09:55:06;;;;;;;3.10;2.70;;;;;;;11.79;39.45;101131.29;107573;1253;99201;-64
2024/03/19 09:57:35;;;;;;;5.50;3.50;;;;;;;11.41;37.06;101138.88;107636;1256;99175;-64
2024/03/19 10:00:09;;;;;;;5.40;3.70;;;;;;;10.59;36.28;101141.05;107593;1253;113617;-66
2024/03/19 10:02:39;;;;;;;4.20;3.30;;;;;;;10.79;35.87;101144.81;107641;1255;107265;-63
2024/03/19 10:05:12;;;;;;;14.90;3.70;;;;;;;10.89;37.07;101132.69;107574;1256;107999;-64
2024/03/19 10:07:40;;;;;;;5.90;3.10;;;;;;;10.53;37.10;101138.35;107548;1255;99163;-63
2024/03/19 10:10:09;;;;;;;4.80;3.40;;;;;;;9.91;36.97;101141.52;107604;1254;99177;-62
2024/03/19 10:12:38;;;;;;;5.50;4.30;;;;;;;9.32;37.88;101140.04;107631;1255;113638;-62
2024/03/19 10:15:07;;;;;;;7.10;3.30;;;;;;;8.86;38.73;101135.79;107597;1254;107930;-64
2024/03/19 10:17:35;;;;;;;13.40;4.00;;;;;;;8.67;39.77;101140.10;107629;1255;108836;-64
2024/03/19 10:20:04;;;;;;;5.70;3.70;;;;;;;8.48;38.80;101140.75;107616;1254;99183;-64
2024/03/19 10:22:33;;;;;;;4.50;3.60;;;;;;;8.61;39.08;101134.99;107546;1253;99724;-62
2024/03/19 10:25:01;;;;;;;7.70;4.20;;;;;;;9.68;38.08;101126.98;107578;1254;112447;-63
2024/03/19 10:27:29;;;;;;;8.80;3.50;;;;;;;11.17;38.20;101118.80;107590;1254;108595;-64
2024/03/19 10:29:58;;;;;;;6.20;2.90;;;;;;;12.95;37.68;101109.46;107643;1254;106803;-64
2024/03/19 10:32:28;;;;;;;4.00;2.90;;;;;;;14.48;34.46;101113.67;107527;1254;99303;-64
2024/03/19 10:35:00;;;;;;;6.40;3.20;;;;;;;14.92;32.19;101112.19;107550;1255;99220;-65
2024/03/19 10:37:30;;;;;;;7.00;3.60;;;;;;;14.27;31.64;101111.17;107575;1254;113727;-64
2024/03/19 10:40:01;;;;;;;6.00;3.00;;;;;;;13.27;31.14;101118.63;107549;1255;108329;-67
2024/03/19 10:42:33;;;;;;;6.80;3.10;;;;;;;12.68;32.72;101112.35;107581;1255;107613;-66
2024/03/19 10:45:02;;;;;;;5.20;3.10;;;;;;;13.18;34.04;101113.70;107603;1254;99269;-65
2024/03/19 10:47:32;;;;;;;5.50;3.40;;;;;;;14.24;31.49;101113.78;107663;1256;99076;-65
2024/03/19 10:50:00;;;;;;;4.10;3.40;;;;;;;15.16;30.91;101108.07;107618;1251;113565;-64
2024/03/19 10:52:29;;;;;;;6.50;2.90;;;;;;;16.15;31.35;101098.50;107560;1254;108491;-65
2024/03/19 10:54:58;;;;;;;15.00;3.30;;;;;;;16.61;28.24;101103.86;107590;1251;108756;-64
2024/03/19 10:57:26;;;;;;;5.60;2.70;;;;;;;16.66;26.76;101105.33;107628;1254;99083;-62
2024/03/19 10:59:55;;;;;;;15.30;3.30;;;;;;;16.09;26.85;101102.77;107648;1251;99714;-63
2024/03/19 11:02:23;;;;;;;11.40;3.50;;;;;;;15.51;29.09;101105.81;107620;1251;112164;-63
2024/03/19 11:04:58;;;;;;;5.60;2.90;;;;;;;15.05;30.11;101104.36;107617;1251;108447;-63
2024/03/19 11:07:26;;;;;;;6.00;3.30;;;;;;;15.02;30.76;101101.23;107568;1256;107745;-63
2024/03/19 11:09:54;;;;;;;6.20;3.30;;;;;;;14.80;30.62;101099.66;107655;1251;99185;-64
2024/03/19 11:12:24;;;;;;;8.30;3.10;;;;;;;15.47;30.48;101094.64;107577;1254;99828;-63
2024/03/19 11:14:56;;;;;;;7.20;2.90;;;;;;;16.74;30.49;101088.89;107693;1251;113727;-63
2024/03/19 11:17:28;;;;;;;9.10;2.70;;;;;;;17.96;29.18;101082.05;107619;1251;108640;-64
2024/03/19 11:19:57;;;;;;;5.60;2.60;;;;;;;18.06;27.18;101084.27;107608;1251;108097;-64